sensor_id;sensor_type;location;lat;lon;timestamp;temperature;humidity
32787;DHT22;19139;49.372;8.580;2023-07-13T00:00:48;23.50;84.80
32787;DHT22;19139;49.372;8.580;2023-07-13T00:03:14;23.50;84.60
32787;DHT22;19139;49.372;8.580;2023-07-13T00:05:41;23.60;85.30
32787;DHT22;19139;49.372;8.580;2023-07-13T00:08:08;23.60;84.40
32787;DHT22;19139;49.372;8.580;2023-07-13T00:10:39;23.60;84.30
32787;DHT22;19139;49.372;8.580;2023-07-13T00:13:06;23.60;84.40
32787;DHT22;19139;49.372;8.580;2023-07-13T00:15:33;23.70;84.60
32787;DHT22;19139;49.372;8.580;2023-07-13T00:18:01;23.90;85.10
32787;DHT22;19139;49.372;8.580;2023-07-13T00:20:28;23.80;84.10
32787;DHT22;19139;49.372;8.580;2023-07-13T00:22:55;23.70;84.00
32787;DHT22;19139;49.372;8.580;2023-07-13T00:25:23;23.70;84.20
32787;DHT22;19139;49.372;8.580;2023-07-13T00:27:55;23.70;84.00
32787;DHT22;19139;49.372;8.580;2023-07-13T00:30:22;23.70;84.20
32787;DHT22;19139;49.372;8.580;2023-07-13T00:32:49;23.80;84.50
32787;DHT22;19139;49.372;8.580;2023-07-13T00:35:27;23.90;85.00
32787;DHT22;19139;49.372;8.580;2023-07-13T00:37:56;24.10;85.50
32787;DHT22;19139;49.372;8.580;2023-07-13T00:40:23;24.20;85.40
32787;DHT22;19139;49.372;8.580;2023-07-13T00:42:52;24.30;85.40
32787;DHT22;19139;49.372;8.580;2023-07-13T00:47:45;24.40;84.70
32787;DHT22;19139;49.372;8.580;2023-07-13T00:50:15;24.40;84.70
32787;DHT22;19139;49.372;8.580;2023-07-13T00:52:45;24.30;83.80
32787;DHT22;19139;49.372;8.580;2023-07-13T00:55:13;24.20;83.90
32787;DHT22;19139;49.372;8.580;2023-07-13T00:57:41;24.10;83.90
32787;DHT22;19139;49.372;8.580;2023-07-13T01:00:09;24.10;83.70
32787;DHT22;19139;49.372;8.580;2023-07-13T01:02:38;24.20;84.30
32787;DHT22;19139;49.372;8.580;2023-07-13T01:05:14;24.30;84.30
32787;DHT22;19139;49.372;8.580;2023-07-13T01:07:42;24.40;85.20
32787;DHT22;19139;49.372;8.580;2023-07-13T01:10:13;24.40;84.30
32787;DHT22;19139;49.372;8.580;2023-07-13T01:12:40;24.50;84.10
32787;DHT22;19139;49.372;8.580;2023-07-13T01:15:33;24.50;83.90
32787;DHT22;19139;49.372;8.580;2023-07-13T01:18:00;24.50;83.90
32787;DHT22;19139;49.372;8.580;2023-07-13T01:20:27;24.50;83.70
32787;DHT22;19139;49.372;8.580;2023-07-13T01:22:54;24.20;83.00
32787;DHT22;19139;49.372;8.580;2023-07-13T01:25:21;24.10;83.50
32787;DHT22;19139;49.372;8.580;2023-07-13T01:27:48;23.90;84.30
32787;DHT22;19139;49.372;8.580;2023-07-13T01:30:14;24.00;84.70
32787;DHT22;19139;49.372;8.580;2023-07-13T01:32:41;24.10;84.90
32787;DHT22;19139;49.372;8.580;2023-07-13T01:35:08;24.00;85.00
32787;DHT22;19139;49.372;8.580;2023-07-13T01:37:35;24.00;85.40
32787;DHT22;19139;49.372;8.580;2023-07-13T01:40:04;24.00;85.40
32787;DHT22;19139;49.372;8.580;2023-07-13T01:42:31;24.00;85.90
32787;DHT22;19139;49.372;8.580;2023-07-13T01:44:58;24.10;85.80
32787;DHT22;19139;49.372;8.580;2023-07-13T01:47:24;23.90;86.10
32787;DHT22;19139;49.372;8.580;2023-07-13T01:49:52;24.00;86.20
32787;DHT22;19139;49.372;8.580;2023-07-13T01:52:19;24.00;86.40
32787;DHT22;19139;49.372;8.580;2023-07-13T01:54:46;24.00;86.40
32787;DHT22;19139;49.372;8.580;2023-07-13T01:57:12;24.10;86.60
32787;DHT22;19139;49.372;8.580;2023-07-13T01:59:39;24.10;86.70
32787;DHT22;19139;49.372;8.580;2023-07-13T02:02:06;24.20;86.80
32787;DHT22;19139;49.372;8.580;2023-07-13T02:04:34;24.20;86.60
32787;DHT22;19139;49.372;8.580;2023-07-13T02:07:01;24.20;86.50
32787;DHT22;19139;49.372;8.580;2023-07-13T02:09:28;24.30;86.50
32787;DHT22;19139;49.372;8.580;2023-07-13T02:11:55;24.30;86.40
32787;DHT22;19139;49.372;8.580;2023-07-13T02:14:21;24.30;86.40
32787;DHT22;19139;49.372;8.580;2023-07-13T02:16:48;24.20;86.30
32787;DHT22;19139;49.372;8.580;2023-07-13T02:19:14;24.10;86.40
32787;DHT22;19139;49.372;8.580;2023-07-13T02:21:42;24.00;86.90
32787;DHT22;19139;49.372;8.580;2023-07-13T02:24:09;23.90;87.20
32787;DHT22;19139;49.372;8.580;2023-07-13T02:26:35;23.90;87.40
32787;DHT22;19139;49.372;8.580;2023-07-13T02:29:02;23.70;87.10
32787;DHT22;19139;49.372;8.580;2023-07-13T02:31:29;23.50;87.10
32787;DHT22;19139;49.372;8.580;2023-07-13T02:33:55;23.20;87.30
32787;DHT22;19139;49.372;8.580;2023-07-13T02:36:22;22.90;87.70
32787;DHT22;19139;49.372;8.580;2023-07-13T02:38:50;22.70;88.20
32787;DHT22;19139;49.372;8.580;2023-07-13T02:41:16;22.70;88.30
32787;DHT22;19139;49.372;8.580;2023-07-13T02:43:43;22.50;88.30
32787;DHT22;19139;49.372;8.580;2023-07-13T02:46:09;22.40;88.70
32787;DHT22;19139;49.372;8.580;2023-07-13T02:48:38;22.10;88.90
32787;DHT22;19139;49.372;8.580;2023-07-13T02:51:05;22.10;89.20
32787;DHT22;19139;49.372;8.580;2023-07-13T02:53:32;22.20;89.30
32787;DHT22;19139;49.372;8.580;2023-07-13T02:55:59;22.20;88.60
32787;DHT22;19139;49.372;8.580;2023-07-13T02:58:26;22.10;88.80
32787;DHT22;19139;49.372;8.580;2023-07-13T03:00:52;22.20;88.90
32787;DHT22;19139;49.372;8.580;2023-07-13T03:03:20;22.50;89.50
32787;DHT22;19139;49.372;8.580;2023-07-13T03:05:47;22.70;89.30
32787;DHT22;19139;49.372;8.580;2023-07-13T03:08:17;22.90;88.80
32787;DHT22;19139;49.372;8.580;2023-07-13T03:10:44;23.00;88.20
32787;DHT22;19139;49.372;8.580;2023-07-13T03:13:11;23.10;88.40
32787;DHT22;19139;49.372;8.580;2023-07-13T03:15:38;23.20;88.20
32787;DHT22;19139;49.372;8.580;2023-07-13T03:18:04;23.30;87.60
32787;DHT22;19139;49.372;8.580;2023-07-13T03:20:34;23.40;87.10
32787;DHT22;19139;49.372;8.580;2023-07-13T03:23:01;23.50;86.80
32787;DHT22;19139;49.372;8.580;2023-07-13T03:25:28;23.60;86.50
32787;DHT22;19139;49.372;8.580;2023-07-13T03:27:54;23.60;86.50
32787;DHT22;19139;49.372;8.580;2023-07-13T03:30:21;23.70;86.50
32787;DHT22;19139;49.372;8.580;2023-07-13T03:32:47;23.70;86.30
32787;DHT22;19139;49.372;8.580;2023-07-13T03:35:14;23.60;86.10
32787;DHT22;19139;49.372;8.580;2023-07-13T03:37:41;23.40;86.50
32787;DHT22;19139;49.372;8.580;2023-07-13T03:40:10;23.30;86.80
32787;DHT22;19139;49.372;8.580;2023-07-13T03:42:36;23.20;87.10
32787;DHT22;19139;49.372;8.580;2023-07-13T03:45:04;23.20;87.50
32787;DHT22;19139;49.372;8.580;2023-07-13T03:47:30;23.10;87.80
32787;DHT22;19139;49.372;8.580;2023-07-13T03:49:57;23.00;88.20
32787;DHT22;19139;49.372;8.580;2023-07-13T03:52:24;23.00;88.30
32787;DHT22;19139;49.372;8.580;2023-07-13T03:54:50;22.90;88.40
32787;DHT22;19139;49.372;8.580;2023-07-13T03:57:18;23.00;88.60
32787;DHT22;19139;49.372;8.580;2023-07-13T03:59:45;23.10;88.30
32787;DHT22;19139;49.372;8.580;2023-07-13T04:02:11;23.30;88.10
32787;DHT22;19139;49.372;8.580;2023-07-13T04:04:38;23.30;88.00
32787;DHT22;19139;49.372;8.580;2023-07-13T04:07:07;23.40;87.90
32787;DHT22;19139;49.372;8.580;2023-07-13T04:09:35;23.40;87.90
32787;DHT22;19139;49.372;8.580;2023-07-13T04:12:02;23.50;88.00
32787;DHT22;19139;49.372;8.580;2023-07-13T04:14:29;23.50;88.90
32787;DHT22;19139;49.372;8.580;2023-07-13T04:16:55;23.50;87.80
32787;DHT22;19139;49.372;8.580;2023-07-13T04:19:23;23.50;88.20
32787;DHT22;19139;49.372;8.580;2023-07-13T04:21:50;23.50;88.30
32787;DHT22;19139;49.372;8.580;2023-07-13T04:24:16;23.40;88.20
32787;DHT22;19139;49.372;8.580;2023-07-13T04:26:43;23.40;88.50
32787;DHT22;19139;49.372;8.580;2023-07-13T04:29:10;23.30;88.80
32787;DHT22;19139;49.372;8.580;2023-07-13T04:31:37;23.40;88.80
32787;DHT22;19139;49.372;8.580;2023-07-13T04:34:03;23.50;88.80
32787;DHT22;19139;49.372;8.580;2023-07-13T04:36:30;23.50;88.60
32787;DHT22;19139;49.372;8.580;2023-07-13T04:38:57;23.50;88.60
32787;DHT22;19139;49.372;8.580;2023-07-13T04:41:24;23.50;88.70
32787;DHT22;19139;49.372;8.580;2023-07-13T04:43:50;23.40;89.80
32787;DHT22;19139;49.372;8.580;2023-07-13T04:46:17;23.50;89.00
32787;DHT22;19139;49.372;8.580;2023-07-13T04:48:45;23.50;89.10
32787;DHT22;19139;49.372;8.580;2023-07-13T04:51:12;23.50;89.00
32787;DHT22;19139;49.372;8.580;2023-07-13T04:53:39;23.50;88.80
32787;DHT22;19139;49.372;8.580;2023-07-13T04:56:06;23.20;88.80
32787;DHT22;19139;49.372;8.580;2023-07-13T04:58:33;23.30;89.70
32787;DHT22;19139;49.372;8.580;2023-07-13T05:01:04;23.40;89.50
32787;DHT22;19139;49.372;8.580;2023-07-13T05:03:32;23.50;89.20
32787;DHT22;19139;49.372;8.580;2023-07-13T05:06:03;23.50;88.90
32787;DHT22;19139;49.372;8.580;2023-07-13T05:08:30;23.60;88.70
32787;DHT22;19139;49.372;8.580;2023-07-13T05:11:00;23.60;88.50
32787;DHT22;19139;49.372;8.580;2023-07-13T05:13:28;23.60;88.20
32787;DHT22;19139;49.372;8.580;2023-07-13T05:16:04;23.60;88.00
32787;DHT22;19139;49.372;8.580;2023-07-13T05:18:32;23.70;87.90
32787;DHT22;19139;49.372;8.580;2023-07-13T05:21:02;23.70;87.70
32787;DHT22;19139;49.372;8.580;2023-07-13T05:23:30;23.70;87.50
32787;DHT22;19139;49.372;8.580;2023-07-13T05:25:57;23.70;87.50
32787;DHT22;19139;49.372;8.580;2023-07-13T05:28:25;23.70;87.30
32787;DHT22;19139;49.372;8.580;2023-07-13T05:30:51;23.70;87.00
32787;DHT22;19139;49.372;8.580;2023-07-13T05:33:18;23.70;86.60
32787;DHT22;19139;49.372;8.580;2023-07-13T05:35:45;23.70;86.50
32787;DHT22;19139;49.372;8.580;2023-07-13T05:38:11;23.70;86.30
32787;DHT22;19139;49.372;8.580;2023-07-13T05:40:38;23.80;86.90
32787;DHT22;19139;49.372;8.580;2023-07-13T05:43:05;23.80;87.30
32787;DHT22;19139;49.372;8.580;2023-07-13T05:45:32;23.80;87.70
32787;DHT22;19139;49.372;8.580;2023-07-13T05:47:58;23.80;87.40
32787;DHT22;19139;49.372;8.580;2023-07-13T05:50:26;23.80;87.40
32787;DHT22;19139;49.372;8.580;2023-07-13T05:52:53;23.70;87.50
32787;DHT22;19139;49.372;8.580;2023-07-13T05:55:21;23.70;87.30
32787;DHT22;19139;49.372;8.580;2023-07-13T05:57:47;23.80;87.30
32787;DHT22;19139;49.372;8.580;2023-07-13T06:00:14;23.60;86.90
32787;DHT22;19139;49.372;8.580;2023-07-13T06:02:41;23.50;86.80
32787;DHT22;19139;49.372;8.580;2023-07-13T06:05:08;23.50;86.70
32787;DHT22;19139;49.372;8.580;2023-07-13T06:07:35;23.40;86.70
32787;DHT22;19139;49.372;8.580;2023-07-13T06:10:02;23.40;86.90
32787;DHT22;19139;49.372;8.580;2023-07-13T06:12:29;23.40;86.80
32787;DHT22;19139;49.372;8.580;2023-07-13T06:14:55;23.30;86.70
32787;DHT22;19139;49.372;8.580;2023-07-13T06:17:22;23.30;86.70
32787;DHT22;19139;49.372;8.580;2023-07-13T06:19:49;23.20;86.70
32787;DHT22;19139;49.372;8.580;2023-07-13T06:22:16;23.20;86.70
32787;DHT22;19139;49.372;8.580;2023-07-13T06:24:42;23.20;86.70
32787;DHT22;19139;49.372;8.580;2023-07-13T06:27:09;23.20;86.90
32787;DHT22;19139;49.372;8.580;2023-07-13T06:29:36;23.20;86.80
32787;DHT22;19139;49.372;8.580;2023-07-13T06:32:02;23.20;86.60
32787;DHT22;19139;49.372;8.580;2023-07-13T06:34:29;23.30;86.60
32787;DHT22;19139;49.372;8.580;2023-07-13T06:36:56;23.20;86.60
32787;DHT22;19139;49.372;8.580;2023-07-13T06:39:22;23.20;86.80
32787;DHT22;19139;49.372;8.580;2023-07-13T06:41:49;23.10;86.90
32787;DHT22;19139;49.372;8.580;2023-07-13T06:44:16;23.10;87.10
32787;DHT22;19139;49.372;8.580;2023-07-13T06:46:42;23.10;88.00
32787;DHT22;19139;49.372;8.580;2023-07-13T06:49:09;23.20;87.30
32787;DHT22;19139;49.372;8.580;2023-07-13T06:51:36;23.20;87.20
32787;DHT22;19139;49.372;8.580;2023-07-13T06:54:03;23.10;87.10
32787;DHT22;19139;49.372;8.580;2023-07-13T06:56:29;23.10;87.40
32787;DHT22;19139;49.372;8.580;2023-07-13T06:58:56;23.10;87.20
32787;DHT22;19139;49.372;8.580;2023-07-13T07:01:23;23.10;87.10
32787;DHT22;19139;49.372;8.580;2023-07-13T07:03:49;23.00;86.90
32787;DHT22;19139;49.372;8.580;2023-07-13T07:06:20;23.10;87.10
32787;DHT22;19139;49.372;8.580;2023-07-13T07:08:51;23.20;87.20
32787;DHT22;19139;49.372;8.580;2023-07-13T07:11:20;23.20;87.10
32787;DHT22;19139;49.372;8.580;2023-07-13T07:13:49;23.30;86.80
32787;DHT22;19139;49.372;8.580;2023-07-13T07:16:16;23.30;86.70
32787;DHT22;19139;49.372;8.580;2023-07-13T07:18:43;23.40;86.60
32787;DHT22;19139;49.372;8.580;2023-07-13T07:21:10;23.40;86.40
32787;DHT22;19139;49.372;8.580;2023-07-13T07:23:37;23.40;86.10
32787;DHT22;19139;49.372;8.580;2023-07-13T07:26:04;23.40;86.00
32787;DHT22;19139;49.372;8.580;2023-07-13T07:28:31;23.50;85.90
32787;DHT22;19139;49.372;8.580;2023-07-13T07:31:01;23.50;85.50
32787;DHT22;19139;49.372;8.580;2023-07-13T07:33:30;23.50;85.50
32787;DHT22;19139;49.372;8.580;2023-07-13T07:35:57;23.60;85.10
32787;DHT22;19139;49.372;8.580;2023-07-13T07:38:26;23.60;84.80
32787;DHT22;19139;49.372;8.580;2023-07-13T07:40:53;23.60;84.60
32787;DHT22;19139;49.372;8.580;2023-07-13T07:43:23;23.60;84.50
32787;DHT22;19139;49.372;8.580;2023-07-13T07:45:49;23.60;84.40
32787;DHT22;19139;49.372;8.580;2023-07-13T07:48:16;23.60;83.90
32787;DHT22;19139;49.372;8.580;2023-07-13T07:50:43;23.60;83.70
32787;DHT22;19139;49.372;8.580;2023-07-13T07:53:10;23.70;83.60
32787;DHT22;19139;49.372;8.580;2023-07-13T07:55:37;23.70;83.60
32787;DHT22;19139;49.372;8.580;2023-07-13T07:58:07;23.80;83.20
32787;DHT22;19139;49.372;8.580;2023-07-13T08:00:53;23.90;82.90
32787;DHT22;19139;49.372;8.580;2023-07-13T08:03:23;23.90;82.70
32787;DHT22;19139;49.372;8.580;2023-07-13T08:05:53;23.90;82.50
32787;DHT22;19139;49.372;8.580;2023-07-13T08:08:23;23.90;82.40
32787;DHT22;19139;49.372;8.580;2023-07-13T08:10:50;24.00;82.40
32787;DHT22;19139;49.372;8.580;2023-07-13T08:13:17;24.00;83.10
32787;DHT22;19139;49.372;8.580;2023-07-13T08:15:44;24.10;83.20
32787;DHT22;19139;49.372;8.580;2023-07-13T08:18:11;24.10;83.40
32787;DHT22;19139;49.372;8.580;2023-07-13T08:20:38;24.20;83.20
32787;DHT22;19139;49.372;8.580;2023-07-13T08:23:07;24.20;83.30
32787;DHT22;19139;49.372;8.580;2023-07-13T08:25:35;24.20;83.30
32787;DHT22;19139;49.372;8.580;2023-07-13T08:28:03;24.20;83.30
32787;DHT22;19139;49.372;8.580;2023-07-13T08:30:30;24.30;83.30
32787;DHT22;19139;49.372;8.580;2023-07-13T08:32:56;24.30;83.40
32787;DHT22;19139;49.372;8.580;2023-07-13T08:35:23;24.30;82.70
32787;DHT22;19139;49.372;8.580;2023-07-13T08:37:52;24.30;82.80
32787;DHT22;19139;49.372;8.580;2023-07-13T08:40:21;24.30;82.40
32787;DHT22;19139;49.372;8.580;2023-07-13T08:42:55;24.30;82.70
32787;DHT22;19139;49.372;8.580;2023-07-13T08:45:34;24.40;83.10
32787;DHT22;19139;49.372;8.580;2023-07-13T08:48:13;24.40;83.10
32787;DHT22;19139;49.372;8.580;2023-07-13T08:50:58;24.40;83.00
32787;DHT22;19139;49.372;8.580;2023-07-13T08:53:34;24.40;83.10
32787;DHT22;19139;49.372;8.580;2023-07-13T08:56:01;24.40;83.10
32787;DHT22;19139;49.372;8.580;2023-07-13T08:58:29;24.40;83.30
32787;DHT22;19139;49.372;8.580;2023-07-13T09:04:11;24.50;83.50
32787;DHT22;19139;49.372;8.580;2023-07-13T09:07:12;24.50;83.70
32787;DHT22;19139;49.372;8.580;2023-07-13T09:15:24;24.50;83.90
32787;DHT22;19139;49.372;8.580;2023-07-13T09:17:55;24.50;84.00
32787;DHT22;19139;49.372;8.580;2023-07-13T09:20:46;24.50;83.90
32787;DHT22;19139;49.372;8.580;2023-07-13T09:23:17;24.60;83.90
32787;DHT22;19139;49.372;8.580;2023-07-13T09:25:48;24.60;84.00
32787;DHT22;19139;49.372;8.580;2023-07-13T09:28:22;24.60;83.90
32787;DHT22;19139;49.372;8.580;2023-07-13T09:30:55;24.60;83.70
32787;DHT22;19139;49.372;8.580;2023-07-13T09:33:22;24.60;83.90
32787;DHT22;19139;49.372;8.580;2023-07-13T09:35:49;24.60;84.00
32787;DHT22;19139;49.372;8.580;2023-07-13T09:38:18;24.60;84.10
32787;DHT22;19139;49.372;8.580;2023-07-13T09:43:36;24.60;83.90
32787;DHT22;19139;49.372;8.580;2023-07-13T09:46:03;24.70;84.10
32787;DHT22;19139;49.372;8.580;2023-07-13T09:48:35;24.70;84.10
32787;DHT22;19139;49.372;8.580;2023-07-13T09:51:14;24.70;84.20
32787;DHT22;19139;49.372;8.580;2023-07-13T09:53:42;24.70;84.30
32787;DHT22;19139;49.372;8.580;2023-07-13T09:56:26;24.70;84.30
32787;DHT22;19139;49.372;8.580;2023-07-13T09:58:53;24.80;84.40
32787;DHT22;19139;49.372;8.580;2023-07-13T10:01:37;24.80;84.30
32787;DHT22;19139;49.372;8.580;2023-07-13T10:04:14;24.80;84.40
32787;DHT22;19139;49.372;8.580;2023-07-13T10:06:43;24.80;84.40
32787;DHT22;19139;49.372;8.580;2023-07-13T10:09:17;24.80;84.40
32787;DHT22;19139;49.372;8.580;2023-07-13T10:11:45;24.80;84.30
32787;DHT22;19139;49.372;8.580;2023-07-13T10:14:18;24.80;84.30
32787;DHT22;19139;49.372;8.580;2023-07-13T10:16:47;24.80;84.10
32787;DHT22;19139;49.372;8.580;2023-07-13T10:21:56;24.80;83.90
32787;DHT22;19139;49.372;8.580;2023-07-13T10:24:27;24.80;83.80
32787;DHT22;19139;49.372;8.580;2023-07-13T10:27:03;24.80;83.80
32787;DHT22;19139;49.372;8.580;2023-07-13T10:29:39;24.90;83.80
32787;DHT22;19139;49.372;8.580;2023-07-13T10:32:11;24.80;83.70
32787;DHT22;19139;49.372;8.580;2023-07-13T10:34:43;24.90;83.80
32787;DHT22;19139;49.372;8.580;2023-07-13T10:37:19;24.90;83.90
32787;DHT22;19139;49.372;8.580;2023-07-13T10:39:47;24.90;84.00
32787;DHT22;19139;49.372;8.580;2023-07-13T10:42:23;24.90;83.90
32787;DHT22;19139;49.372;8.580;2023-07-13T10:44:52;24.90;83.80
32787;DHT22;19139;49.372;8.580;2023-07-13T10:47:19;25.00;83.70
32787;DHT22;19139;49.372;8.580;2023-07-13T10:49:55;24.90;83.60
32787;DHT22;19139;49.372;8.580;2023-07-13T10:52:42;25.00;83.40
32787;DHT22;19139;49.372;8.580;2023-07-13T10:58:02;25.00;83.20
32787;DHT22;19139;49.372;8.580;2023-07-13T11:00:32;25.00;83.20
32787;DHT22;19139;49.372;8.580;2023-07-13T11:03:15;25.00;83.10
32787;DHT22;19139;49.372;8.580;2023-07-13T11:05:43;25.00;83.00
32787;DHT22;19139;49.372;8.580;2023-07-13T11:10:56;25.00;82.80
32787;DHT22;19139;49.372;8.580;2023-07-13T11:16:34;25.00;82.60
32787;DHT22;19139;49.372;8.580;2023-07-13T11:21:29;25.00;82.50
32787;DHT22;19139;49.372;8.580;2023-07-13T11:24:15;25.00;82.30
32787;DHT22;19139;49.372;8.580;2023-07-13T11:29:36;25.00;82.20
32787;DHT22;19139;49.372;8.580;2023-07-13T11:32:24;25.00;81.90
32787;DHT22;19139;49.372;8.580;2023-07-13T11:34:54;25.00;82.10
32787;DHT22;19139;49.372;8.580;2023-07-13T11:37:21;25.10;82.00
32787;DHT22;19139;49.372;8.580;2023-07-13T11:39:51;25.10;81.70
32787;DHT22;19139;49.372;8.580;2023-07-13T11:42:20;25.00;81.30
32787;DHT22;19139;49.372;8.580;2023-07-13T11:44:50;25.10;81.30
32787;DHT22;19139;49.372;8.580;2023-07-13T11:47:40;25.10;81.20
32787;DHT22;19139;49.372;8.580;2023-07-13T11:50:20;25.10;81.10
32787;DHT22;19139;49.372;8.580;2023-07-13T11:52:49;25.10;81.10
32787;DHT22;19139;49.372;8.580;2023-07-13T11:55:18;25.10;80.70
32787;DHT22;19139;49.372;8.580;2023-07-13T11:57:56;25.10;80.70
32787;DHT22;19139;49.372;8.580;2023-07-13T12:00:32;25.10;80.50
32787;DHT22;19139;49.372;8.580;2023-07-13T12:03:01;25.10;80.10
32787;DHT22;19139;49.372;8.580;2023-07-13T12:05:31;25.20;80.00
32787;DHT22;19139;49.372;8.580;2023-07-13T12:07:58;25.20;79.60
32787;DHT22;19139;49.372;8.580;2023-07-13T12:10:30;25.20;79.40
32787;DHT22;19139;49.372;8.580;2023-07-13T12:12:58;25.20;79.30
32787;DHT22;19139;49.372;8.580;2023-07-13T12:18:14;25.20;79.00
32787;DHT22;19139;49.372;8.580;2023-07-13T12:20:41;25.20;79.10
32787;DHT22;19139;49.372;8.580;2023-07-13T12:23:22;25.20;79.00
32787;DHT22;19139;49.372;8.580;2023-07-13T12:25:51;25.20;78.80
32787;DHT22;19139;49.372;8.580;2023-07-13T12:30:58;25.20;78.80
32787;DHT22;19139;49.372;8.580;2023-07-13T12:33:28;25.20;78.80
32787;DHT22;19139;49.372;8.580;2023-07-13T12:35:55;25.20;79.00
32787;DHT22;19139;49.372;8.580;2023-07-13T12:38:25;25.20;79.00
32787;DHT22;19139;49.372;8.580;2023-07-13T12:40:52;25.20;79.00
32787;DHT22;19139;49.372;8.580;2023-07-13T12:43:21;25.20;78.80
32787;DHT22;19139;49.372;8.580;2023-07-13T12:46:01;25.20;78.90
32787;DHT22;19139;49.372;8.580;2023-07-13T12:48:28;25.20;78.60
32787;DHT22;19139;49.372;8.580;2023-07-13T12:51:13;25.20;78.50
32787;DHT22;19139;49.372;8.580;2023-07-13T12:53:43;25.20;78.40
32787;DHT22;19139;49.372;8.580;2023-07-13T12:56:19;25.20;78.40
32787;DHT22;19139;49.372;8.580;2023-07-13T12:58:48;25.20;78.20
32787;DHT22;19139;49.372;8.580;2023-07-13T13:01:21;25.20;78.00
32787;DHT22;19139;49.372;8.580;2023-07-13T13:03:52;25.20;78.10
32787;DHT22;19139;49.372;8.580;2023-07-13T13:06:21;25.20;78.00
32787;DHT22;19139;49.372;8.580;2023-07-13T13:08:51;25.20;78.00
32787;DHT22;19139;49.372;8.580;2023-07-13T13:11:20;25.20;78.30
32787;DHT22;19139;49.372;8.580;2023-07-13T13:13:47;25.20;78.00
32787;DHT22;19139;49.372;8.580;2023-07-13T13:16:21;25.30;78.30
32787;DHT22;19139;49.372;8.580;2023-07-13T13:18:53;25.30;78.50
32787;DHT22;19139;49.372;8.580;2023-07-13T13:21:21;25.30;78.70
32787;DHT22;19139;49.372;8.580;2023-07-13T13:23:48;25.30;78.10
32787;DHT22;19139;49.372;8.580;2023-07-13T13:26:16;25.40;77.50
32787;DHT22;19139;49.372;8.580;2023-07-13T13:28:43;25.40;76.90
32787;DHT22;19139;49.372;8.580;2023-07-13T13:31:11;25.40;76.40
32787;DHT22;19139;49.372;8.580;2023-07-13T13:33:43;25.40;76.30
32787;DHT22;19139;49.372;8.580;2023-07-13T13:36:22;25.40;76.00
32787;DHT22;19139;49.372;8.580;2023-07-13T13:38:50;25.40;75.60
32787;DHT22;19139;49.372;8.580;2023-07-13T13:41:17;25.40;75.80
32787;DHT22;19139;49.372;8.580;2023-07-13T13:43:44;25.40;75.40
32787;DHT22;19139;49.372;8.580;2023-07-13T13:46:24;25.40;75.60
32787;DHT22;19139;49.372;8.580;2023-07-13T13:48:55;25.50;75.70
32787;DHT22;19139;49.372;8.580;2023-07-13T13:51:24;25.50;75.70
32787;DHT22;19139;49.372;8.580;2023-07-13T13:53:51;25.50;75.50
32787;DHT22;19139;49.372;8.580;2023-07-13T13:56:19;25.50;75.50
32787;DHT22;19139;49.372;8.580;2023-07-13T13:58:46;25.50;75.80
32787;DHT22;19139;49.372;8.580;2023-07-13T14:01:17;25.50;75.80
32787;DHT22;19139;49.372;8.580;2023-07-13T14:03:45;25.50;75.90
32787;DHT22;19139;49.372;8.580;2023-07-13T14:06:13;25.50;76.00
32787;DHT22;19139;49.372;8.580;2023-07-13T14:08:40;25.60;75.70
32787;DHT22;19139;49.372;8.580;2023-07-13T14:11:18;25.60;75.70
32787;DHT22;19139;49.372;8.580;2023-07-13T14:13:57;25.60;75.40
32787;DHT22;19139;49.372;8.580;2023-07-13T14:16:28;25.60;75.20
32787;DHT22;19139;49.372;8.580;2023-07-13T14:18:56;25.60;75.00
32787;DHT22;19139;49.372;8.580;2023-07-13T14:21:26;25.70;74.90
32787;DHT22;19139;49.372;8.580;2023-07-13T14:23:53;25.70;75.00
32787;DHT22;19139;49.372;8.580;2023-07-13T14:26:23;25.70;74.90
32787;DHT22;19139;49.372;8.580;2023-07-13T14:28:52;25.70;74.90
32787;DHT22;19139;49.372;8.580;2023-07-13T14:31:20;25.70;74.90
32787;DHT22;19139;49.372;8.580;2023-07-13T14:33:47;25.70;74.80
32787;DHT22;19139;49.372;8.580;2023-07-13T14:36:32;25.70;74.70
32787;DHT22;19139;49.372;8.580;2023-07-13T14:39:04;25.70;74.50
32787;DHT22;19139;49.372;8.580;2023-07-13T14:41:35;25.70;74.40
32787;DHT22;19139;49.372;8.580;2023-07-13T14:44:04;25.70;74.70
32787;DHT22;19139;49.372;8.580;2023-07-13T14:46:34;25.70;74.60
32787;DHT22;19139;49.372;8.580;2023-07-13T14:49:33;25.70;74.90
32787;DHT22;19139;49.372;8.580;2023-07-13T14:52:05;25.70;75.00
32787;DHT22;19139;49.372;8.580;2023-07-13T14:54:37;25.70;74.60
32787;DHT22;19139;49.372;8.580;2023-07-13T14:57:11;25.70;74.50
32787;DHT22;19139;49.372;8.580;2023-07-13T14:59:38;25.70;74.20
32787;DHT22;19139;49.372;8.580;2023-07-13T15:02:32;25.70;74.10
32787;DHT22;19139;49.372;8.580;2023-07-13T15:04:59;25.70;74.10
32787;DHT22;19139;49.372;8.580;2023-07-13T15:07:26;25.70;74.60
32787;DHT22;19139;49.372;8.580;2023-07-13T15:09:53;25.70;74.80
32787;DHT22;19139;49.372;8.580;2023-07-13T15:12:20;25.60;75.10
32787;DHT22;19139;49.372;8.580;2023-07-13T15:14:46;25.60;75.30
32787;DHT22;19139;49.372;8.580;2023-07-13T15:17:27;25.70;75.60
32787;DHT22;19139;49.372;8.580;2023-07-13T15:19:54;25.60;75.50
32787;DHT22;19139;49.372;8.580;2023-07-13T15:22:22;25.60;75.70
32787;DHT22;19139;49.372;8.580;2023-07-13T15:24:49;25.70;76.10
32787;DHT22;19139;49.372;8.580;2023-07-13T15:27:16;25.60;76.10
32787;DHT22;19139;49.372;8.580;2023-07-13T15:29:42;25.70;76.40
32787;DHT22;19139;49.372;8.580;2023-07-13T15:32:14;25.60;76.40
32787;DHT22;19139;49.372;8.580;2023-07-13T15:34:40;25.60;76.50
32787;DHT22;19139;49.372;8.580;2023-07-13T15:37:15;25.60;76.60
32787;DHT22;19139;49.372;8.580;2023-07-13T15:39:42;25.60;76.70
32787;DHT22;19139;49.372;8.580;2023-07-13T15:42:15;25.60;76.80
32787;DHT22;19139;49.372;8.580;2023-07-13T15:44:42;25.70;77.00
32787;DHT22;19139;49.372;8.580;2023-07-13T15:47:11;25.60;76.90
32787;DHT22;19139;49.372;8.580;2023-07-13T15:49:39;25.60;77.00
32787;DHT22;19139;49.372;8.580;2023-07-13T15:52:17;25.60;77.10
32787;DHT22;19139;49.372;8.580;2023-07-13T15:54:46;25.70;78.10
32787;DHT22;19139;49.372;8.580;2023-07-13T15:57:14;25.60;77.30
32787;DHT22;19139;49.372;8.580;2023-07-13T15:59:42;25.60;77.30
32787;DHT22;19139;49.372;8.580;2023-07-13T16:02:17;25.60;77.40
32787;DHT22;19139;49.372;8.580;2023-07-13T16:04:44;25.60;77.50
32787;DHT22;19139;49.372;8.580;2023-07-13T16:07:12;25.70;77.60
32787;DHT22;19139;49.372;8.580;2023-07-13T16:09:40;25.70;77.70
32787;DHT22;19139;49.372;8.580;2023-07-13T16:12:14;25.70;77.70
32787;DHT22;19139;49.372;8.580;2023-07-13T16:14:42;25.60;77.70
32787;DHT22;19139;49.372;8.580;2023-07-13T16:17:10;25.70;77.80
32787;DHT22;19139;49.372;8.580;2023-07-13T16:19:37;25.70;77.90